sensor_id;sensor_type;location;lat;lon;timestamp;P1;durP1;ratioP1;P2;durP2;ratioP2
21527;SDS011;10925;49.102;-0.370;2023-05-27T00:00:45;38.55;;;8.68;;
21527;SDS011;10925;49.102;-0.370;2023-05-27T00:03:12;44.80;;;9.52;;
21527;SDS011;10925;49.102;-0.370;2023-05-27T00:05:38;42.95;;;8.70;;
21527;SDS011;10925;49.102;-0.370;2023-05-27T00:08:05;51.05;;;9.60;;
21527;SDS011;10925;49.102;-0.370;2023-05-27T00:10:32;45.67;;;10.25;;
21527;SDS011;10925;49.102;-0.370;2023-05-27T00:12:59;35.75;;;9.45;;
21527;SDS011;10925;49.102;-0.370;2023-05-27T00:15:25;46.35;;;8.98;;
21527;SDS011;10925;49.102;-0.370;2023-05-27T00:17:53;42.08;;;10.18;;
21527;SDS011;10925;49.102;-0.370;2023-05-27T00:20:19;33.35;;;9.60;;
21527;SDS011;10925;49.102;-0.370;2023-05-27T00:22:46;36.60;;;9.40;;
21527;SDS011;10925;49.102;-0.370;2023-05-27T00:25:13;45.85;;;9.85;;
21527;SDS011;10925;49.102;-0.370;2023-05-27T00:27:40;46.30;;;9.75;;
21527;SDS011;10925;49.102;-0.370;2023-05-27T00:30:07;40.65;;;9.00;;
21527;SDS011;10925;49.102;-0.370;2023-05-27T00:32:34;37.30;;;10.00;;
21527;SDS011;10925;49.102;-0.370;2023-05-27T00:34:59;54.05;;;10.40;;
21527;SDS011;10925;49.102;-0.370;2023-05-27T00:37:26;46.55;;;10.27;;
21527;SDS011;10925;49.102;-0.370;2023-05-27T00:39:53;43.90;;;9.48;;
21527;SDS011;10925;49.102;-0.370;2023-05-27T00:42:20;50.80;;;10.75;;
21527;SDS011;10925;49.102;-0.370;2023-05-27T00:44:47;55.47;;;11.23;;
21527;SDS011;10925;49.102;-0.370;2023-05-27T00:47:14;45.53;;;10.77;;
21527;SDS011;10925;49.102;-0.370;2023-05-27T00:49:41;52.17;;;11.15;;
21527;SDS011;10925;49.102;-0.370;2023-05-27T00:52:07;59.75;;;12.20;;
21527;SDS011;10925;49.102;-0.370;2023-05-27T00:54:34;49.50;;;11.45;;
21527;SDS011;10925;49.102;-0.370;2023-05-27T00:57:01;44.58;;;9.75;;
21527;SDS011;10925;49.102;-0.370;2023-05-27T00:59:28;50.50;;;10.15;;
21527;SDS011;10925;49.102;-0.370;2023-05-27T01:01:55;52.58;;;11.15;;
21527;SDS011;10925;49.102;-0.370;2023-05-27T01:04:23;40.30;;;10.90;;
21527;SDS011;10925;49.102;-0.370;2023-05-27T01:09:26;46.30;;;11.25;;
21527;SDS011;10925;49.102;-0.370;2023-05-27T01:11:58;36.80;;;10.05;;
21527;SDS011;10925;49.102;-0.370;2023-05-27T01:14:26;43.38;;;10.77;;
21527;SDS011;10925;49.102;-0.370;2023-05-27T01:16:54;43.70;;;10.88;;
21527;SDS011;10925;49.102;-0.370;2023-05-27T01:19:36;46.90;;;10.73;;
21527;SDS011;10925;49.102;-0.370;2023-05-27T01:22:02;44.53;;;9.90;;
21527;SDS011;10925;49.102;-0.370;2023-05-27T01:24:28;36.20;;;10.07;;
21527;SDS011;10925;49.102;-0.370;2023-05-27T01:26:54;41.85;;;9.88;;
21527;SDS011;10925;49.102;-0.370;2023-05-27T01:29:21;48.45;;;10.23;;
21527;SDS011;10925;49.102;-0.370;2023-05-27T01:31:53;52.90;;;11.93;;
21527;SDS011;10925;49.102;-0.370;2023-05-27T01:34:22;42.72;;;11.23;;
21527;SDS011;10925;49.102;-0.370;2023-05-27T01:36:52;51.20;;;10.55;;
21527;SDS011;10925;49.102;-0.370;2023-05-27T01:39:22;36.13;;;10.75;;
21527;SDS011;10925;49.102;-0.370;2023-05-27T01:41:49;47.45;;;10.32;;
21527;SDS011;10925;49.102;-0.370;2023-05-27T01:44:16;56.63;;;12.02;;
21527;SDS011;10925;49.102;-0.370;2023-05-27T01:46:44;54.60;;;10.65;;
21527;SDS011;10925;49.102;-0.370;2023-05-27T01:49:11;49.60;;;12.23;;
21527;SDS011;10925;49.102;-0.370;2023-05-27T01:51:38;47.25;;;10.82;;
21527;SDS011;10925;49.102;-0.370;2023-05-27T01:54:04;41.38;;;10.98;;
21527;SDS011;10925;49.102;-0.370;2023-05-27T01:56:31;43.47;;;11.20;;
21527;SDS011;10925;49.102;-0.370;2023-05-27T01:58:58;44.95;;;11.15;;
21527;SDS011;10925;49.102;-0.370;2023-05-27T02:01:24;44.67;;;11.35;;
21527;SDS011;10925;49.102;-0.370;2023-05-27T02:03:52;44.47;;;10.80;;
21527;SDS011;10925;49.102;-0.370;2023-05-27T02:06:19;50.10;;;10.85;;
21527;SDS011;10925;49.102;-0.370;2023-05-27T02:08:45;52.67;;;11.00;;
21527;SDS011;10925;49.102;-0.370;2023-05-27T02:11:13;40.00;;;10.57;;
21527;SDS011;10925;49.102;-0.370;2023-05-27T02:13:40;45.20;;;11.60;;
21527;SDS011;10925;49.102;-0.370;2023-05-27T02:16:07;56.13;;;12.10;;
21527;SDS011;10925;49.102;-0.370;2023-05-27T02:18:35;48.20;;;11.43;;
21527;SDS011;10925;49.102;-0.370;2023-05-27T02:21:01;41.78;;;11.00;;
21527;SDS011;10925;49.102;-0.370;2023-05-27T02:23:32;52.33;;;12.05;;
21527;SDS011;10925;49.102;-0.370;2023-05-27T02:25:59;48.80;;;10.13;;
21527;SDS011;10925;49.102;-0.370;2023-05-27T02:28:26;44.28;;;11.20;;
21527;SDS011;10925;49.102;-0.370;2023-05-27T02:30:51;39.88;;;10.55;;
21527;SDS011;10925;49.102;-0.370;2023-05-27T02:33:18;43.78;;;11.45;;
21527;SDS011;10925;49.102;-0.370;2023-05-27T02:35:45;49.20;;;10.55;;
21527;SDS011;10925;49.102;-0.370;2023-05-27T02:38:12;40.38;;;11.52;;
21527;SDS011;10925;49.102;-0.370;2023-05-27T02:40:41;41.60;;;10.30;;
21527;SDS011;10925;49.102;-0.370;2023-05-27T02:43:06;38.63;;;10.23;;
21527;SDS011;10925;49.102;-0.370;2023-05-27T02:45:33;35.03;;;10.00;;
21527;SDS011;10925;49.102;-0.370;2023-05-27T02:47:59;39.08;;;10.95;;
21527;SDS011;10925;49.102;-0.370;2023-05-27T02:50:29;46.28;;;10.20;;
21527;SDS011;10925;49.102;-0.370;2023-05-27T02:52:56;44.95;;;9.95;;
21527;SDS011;10925;49.102;-0.370;2023-05-27T02:55:23;48.70;;;10.40;;
21527;SDS011;10925;49.102;-0.370;2023-05-27T02:57:50;38.85;;;10.55;;
21527;SDS011;10925;49.102;-0.370;2023-05-27T03:00:17;31.63;;;9.80;;
21527;SDS011;10925;49.102;-0.370;2023-05-27T03:02:44;38.65;;;10.80;;
21527;SDS011;10925;49.102;-0.370;2023-05-27T03:05:11;47.42;;;10.98;;
21527;SDS011;10925;49.102;-0.370;2023-05-27T03:07:38;31.45;;;9.57;;
21527;SDS011;10925;49.102;-0.370;2023-05-27T03:10:04;38.53;;;10.90;;
21527;SDS011;10925;49.102;-0.370;2023-05-27T03:12:30;47.78;;;9.82;;
21527;SDS011;10925;49.102;-0.370;2023-05-27T03:14:55;45.75;;;11.50;;
21527;SDS011;10925;49.102;-0.370;2023-05-27T03:17:22;34.72;;;11.57;;
21527;SDS011;10925;49.102;-0.370;2023-05-27T03:19:49;49.78;;;12.45;;
21527;SDS011;10925;49.102;-0.370;2023-05-27T03:22:16;34.38;;;9.23;;
21527;SDS011;10925;49.102;-0.370;2023-05-27T03:24:44;44.15;;;11.55;;
21527;SDS011;10925;49.102;-0.370;2023-05-27T03:27:11;48.17;;;11.80;;
21527;SDS011;10925;49.102;-0.370;2023-05-27T03:29:38;47.17;;;11.27;;
21527;SDS011;10925;49.102;-0.370;2023-05-27T03:32:05;43.45;;;11.57;;
21527;SDS011;10925;49.102;-0.370;2023-05-27T03:34:33;43.92;;;11.35;;
21527;SDS011;10925;49.102;-0.370;2023-05-27T03:37:00;44.60;;;11.07;;
21527;SDS011;10925;49.102;-0.370;2023-05-27T03:39:42;37.50;;;10.60;;
21527;SDS011;10925;49.102;-0.370;2023-05-27T03:42:09;35.67;;;10.70;;
21527;SDS011;10925;49.102;-0.370;2023-05-27T03:44:36;41.45;;;10.80;;
21527;SDS011;10925;49.102;-0.370;2023-05-27T03:47:03;40.78;;;9.93;;
21527;SDS011;10925;49.102;-0.370;2023-05-27T03:49:30;38.67;;;10.07;;
21527;SDS011;10925;49.102;-0.370;2023-05-27T03:51:56;35.03;;;10.15;;
21527;SDS011;10925;49.102;-0.370;2023-05-27T03:54:21;39.38;;;10.40;;
21527;SDS011;10925;49.102;-0.370;2023-05-27T03:56:49;36.03;;;10.20;;
21527;SDS011;10925;49.102;-0.370;2023-05-27T03:59:17;37.05;;;11.07;;
21527;SDS011;10925;49.102;-0.370;2023-05-27T04:01:47;46.40;;;9.98;;
21527;SDS011;10925;49.102;-0.370;2023-05-27T04:04:14;30.73;;;10.02;;
21527;SDS011;10925;49.102;-0.370;2023-05-27T04:06:41;34.33;;;10.13;;
21527;SDS011;10925;49.102;-0.370;2023-05-27T04:09:08;38.72;;;10.18;;
21527;SDS011;10925;49.102;-0.370;2023-05-27T04:11:34;31.33;;;8.90;;
21527;SDS011;10925;49.102;-0.370;2023-05-27T04:14:00;24.25;;;9.20;;
21527;SDS011;10925;49.102;-0.370;2023-05-27T04:16:27;34.53;;;9.40;;
21527;SDS011;10925;49.102;-0.370;2023-05-27T04:18:57;34.42;;;10.70;;
21527;SDS011;10925;49.102;-0.370;2023-05-27T04:21:24;29.85;;;9.80;;
21527;SDS011;10925;49.102;-0.370;2023-05-27T04:23:51;35.67;;;10.63;;
21527;SDS011;10925;49.102;-0.370;2023-05-27T04:26:16;32.58;;;9.98;;
21527;SDS011;10925;49.102;-0.370;2023-05-27T04:31:51;25.77;;;10.15;;
21527;SDS011;10925;49.102;-0.370;2023-05-27T04:34:17;29.92;;;9.07;;
21527;SDS011;10925;49.102;-0.370;2023-05-27T04:36:42;30.23;;;8.88;;
21527;SDS011;10925;49.102;-0.370;2023-05-27T04:39:12;29.38;;;9.40;;
21527;SDS011;10925;49.102;-0.370;2023-05-27T04:41:42;24.50;;;8.52;;
21527;SDS011;10925;49.102;-0.370;2023-05-27T04:44:09;26.63;;;8.30;;
21527;SDS011;10925;49.102;-0.370;2023-05-27T04:46:35;24.23;;;8.40;;
21527;SDS011;10925;49.102;-0.370;2023-05-27T04:49:05;24.13;;;8.80;;
21527;SDS011;10925;49.102;-0.370;2023-05-27T04:51:32;24.90;;;8.80;;
21527;SDS011;10925;49.102;-0.370;2023-05-27T04:53:59;20.85;;;8.48;;
21527;SDS011;10925;49.102;-0.370;2023-05-27T04:56:26;18.92;;;7.97;;
21527;SDS011;10925;49.102;-0.370;2023-05-27T04:58:53;24.55;;;8.05;;
21527;SDS011;10925;49.102;-0.370;2023-05-27T05:01:24;18.27;;;8.13;;
21527;SDS011;10925;49.102;-0.370;2023-05-27T05:04:01;29.48;;;9.15;;
21527;SDS011;10925;49.102;-0.370;2023-05-27T05:06:51;24.25;;;10.00;;
21527;SDS011;10925;49.102;-0.370;2023-05-27T05:09:17;30.25;;;8.77;;
21527;SDS011;10925;49.102;-0.370;2023-05-27T05:11:45;25.08;;;9.25;;
21527;SDS011;10925;49.102;-0.370;2023-05-27T05:14:12;24.90;;;8.40;;
21527;SDS011;10925;49.102;-0.370;2023-05-27T05:16:39;27.77;;;10.32;;
21527;SDS011;10925;49.102;-0.370;2023-05-27T05:19:07;20.88;;;8.35;;
21527;SDS011;10925;49.102;-0.370;2023-05-27T05:21:46;28.60;;;9.60;;
21527;SDS011;10925;49.102;-0.370;2023-05-27T05:24:11;25.23;;;8.95;;
21527;SDS011;10925;49.102;-0.370;2023-05-27T05:26:40;28.90;;;9.55;;
21527;SDS011;10925;49.102;-0.370;2023-05-27T05:29:08;32.88;;;9.82;;
21527;SDS011;10925;49.102;-0.370;2023-05-27T05:31:35;23.65;;;8.93;;
21527;SDS011;10925;49.102;-0.370;2023-05-27T05:34:03;27.77;;;9.07;;
21527;SDS011;10925;49.102;-0.370;2023-05-27T05:36:33;37.05;;;9.40;;
21527;SDS011;10925;49.102;-0.370;2023-05-27T05:39:04;27.73;;;8.77;;
21527;SDS011;10925;49.102;-0.370;2023-05-27T05:41:32;33.55;;;9.35;;
21527;SDS011;10925;49.102;-0.370;2023-05-27T05:43:59;26.70;;;9.18;;
21527;SDS011;10925;49.102;-0.370;2023-05-27T05:46:24;26.20;;;8.68;;
21527;SDS011;10925;49.102;-0.370;2023-05-27T05:48:52;24.23;;;8.50;;
21527;SDS011;10925;49.102;-0.370;2023-05-27T05:51:30;36.17;;;9.13;;
21527;SDS011;10925;49.102;-0.370;2023-05-27T05:53:59;30.75;;;8.85;;
21527;SDS011;10925;49.102;-0.370;2023-05-27T05:56:25;31.10;;;8.50;;
21527;SDS011;10925;49.102;-0.370;2023-05-27T05:58:54;31.83;;;9.30;;
21527;SDS011;10925;49.102;-0.370;2023-05-27T06:01:22;24.92;;;7.32;;
21527;SDS011;10925;49.102;-0.370;2023-05-27T06:03:49;28.10;;;8.18;;
21527;SDS011;10925;49.102;-0.370;2023-05-27T06:06:16;27.67;;;7.65;;
21527;SDS011;10925;49.102;-0.370;2023-05-27T06:09:09;19.67;;;6.85;;
21527;SDS011;10925;49.102;-0.370;2023-05-27T06:11:36;19.42;;;5.65;;
21527;SDS011;10925;49.102;-0.370;2023-05-27T06:14:03;25.48;;;6.55;;
21527;SDS011;10925;49.102;-0.370;2023-05-27T06:16:30;26.20;;;6.60;;
21527;SDS011;10925;49.102;-0.370;2023-05-27T06:18:57;23.73;;;6.22;;
21527;SDS011;10925;49.102;-0.370;2023-05-27T06:21:24;23.80;;;5.53;;
21527;SDS011;10925;49.102;-0.370;2023-05-27T06:24:16;15.48;;;6.15;;
21527;SDS011;10925;49.102;-0.370;2023-05-27T06:26:51;16.52;;;6.32;;
21527;SDS011;10925;49.102;-0.370;2023-05-27T06:29:18;19.40;;;6.47;;
21527;SDS011;10925;49.102;-0.370;2023-05-27T06:31:45;23.48;;;6.90;;
21527;SDS011;10925;49.102;-0.370;2023-05-27T06:34:13;22.23;;;6.63;;
21527;SDS011;10925;49.102;-0.370;2023-05-27T06:36:40;23.77;;;6.28;;
21527;SDS011;10925;49.102;-0.370;2023-05-27T06:39:07;19.23;;;6.10;;
21527;SDS011;10925;49.102;-0.370;2023-05-27T06:41:34;19.48;;;5.97;;
21527;SDS011;10925;49.102;-0.370;2023-05-27T06:47:24;27.60;;;6.82;;
21527;SDS011;10925;49.102;-0.370;2023-05-27T06:49:51;26.48;;;6.65;;
21527;SDS011;10925;49.102;-0.370;2023-05-27T06:52:19;16.17;;;5.15;;
21527;SDS011;10925;49.102;-0.370;2023-05-27T06:55:06;22.30;;;6.40;;
21527;SDS011;10925;49.102;-0.370;2023-05-27T06:57:32;19.48;;;5.88;;
21527;SDS011;10925;49.102;-0.370;2023-05-27T07:00:07;20.25;;;6.13;;
21527;SDS011;10925;49.102;-0.370;2023-05-27T07:02:44;23.75;;;6.35;;
21527;SDS011;10925;49.102;-0.370;2023-05-27T07:05:11;24.85;;;6.47;;
21527;SDS011;10925;49.102;-0.370;2023-05-27T07:07:36;23.83;;;6.57;;
21527;SDS011;10925;49.102;-0.370;2023-05-27T07:10:02;23.60;;;6.70;;
21527;SDS011;10925;49.102;-0.370;2023-05-27T07:12:29;24.85;;;7.00;;
21527;SDS011;10925;49.102;-0.370;2023-05-27T07:15:03;22.80;;;5.93;;
21527;SDS011;10925;49.102;-0.370;2023-05-27T07:17:36;21.90;;;6.70;;
21527;SDS011;10925;49.102;-0.370;2023-05-27T07:20:03;21.45;;;6.53;;
21527;SDS011;10925;49.102;-0.370;2023-05-27T07:22:30;21.75;;;5.75;;
21527;SDS011;10925;49.102;-0.370;2023-05-27T07:24:57;20.38;;;6.60;;
21527;SDS011;10925;49.102;-0.370;2023-05-27T07:27:23;22.52;;;6.65;;
21527;SDS011;10925;49.102;-0.370;2023-05-27T07:29:48;17.20;;;5.50;;
21527;SDS011;10925;49.102;-0.370;2023-05-27T07:32:33;23.23;;;6.78;;
21527;SDS011;10925;49.102;-0.370;2023-05-27T07:35:01;19.40;;;6.20;;
21527;SDS011;10925;49.102;-0.370;2023-05-27T07:37:27;16.17;;;5.80;;
21527;SDS011;10925;49.102;-0.370;2023-05-27T07:39:56;19.92;;;6.65;;
21527;SDS011;10925;49.102;-0.370;2023-05-27T07:42:22;20.17;;;5.60;;
21527;SDS011;10925;49.102;-0.370;2023-05-27T07:44:49;23.55;;;6.80;;
21527;SDS011;10925;49.102;-0.370;2023-05-27T07:47:16;19.00;;;6.63;;
21527;SDS011;10925;49.102;-0.370;2023-05-27T07:49:42;20.05;;;6.43;;
21527;SDS011;10925;49.102;-0.370;2023-05-27T07:52:09;22.90;;;6.78;;
21527;SDS011;10925;49.102;-0.370;2023-05-27T07:54:36;15.20;;;5.57;;
21527;SDS011;10925;49.102;-0.370;2023-05-27T07:57:01;17.92;;;6.20;;
21527;SDS011;10925;49.102;-0.370;2023-05-27T07:59:30;24.98;;;6.68;;
21527;SDS011;10925;49.102;-0.370;2023-05-27T08:01:57;20.75;;;6.35;;
21527;SDS011;10925;49.102;-0.370;2023-05-27T08:04:22;19.42;;;6.28;;
21527;SDS011;10925;49.102;-0.370;2023-05-27T08:06:48;19.90;;;6.38;;
21527;SDS011;10925;49.102;-0.370;2023-05-27T08:09:47;23.77;;;6.57;;
21527;SDS011;10925;49.102;-0.370;2023-05-27T08:12:35;22.83;;;6.78;;
21527;SDS011;10925;49.102;-0.370;2023-05-27T08:15:20;19.77;;;6.35;;
21527;SDS011;10925;49.102;-0.370;2023-05-27T08:17:46;26.55;;;6.43;;
21527;SDS011;10925;49.102;-0.370;2023-05-27T08:20:39;23.50;;;6.60;;
21527;SDS011;10925;49.102;-0.370;2023-05-27T08:23:20;25.70;;;7.03;;
21527;SDS011;10925;49.102;-0.370;2023-05-27T08:25:46;18.17;;;6.38;;
21527;SDS011;10925;49.102;-0.370;2023-05-27T08:28:35;24.23;;;7.10;;
21527;SDS011;10925;49.102;-0.370;2023-05-27T08:31:26;23.40;;;7.45;;
21527;SDS011;10925;49.102;-0.370;2023-05-27T08:33:56;19.80;;;6.38;;
21527;SDS011;10925;49.102;-0.370;2023-05-27T08:36:23;24.20;;;7.30;;
21527;SDS011;10925;49.102;-0.370;2023-05-27T08:38:51;22.70;;;7.28;;
21527;SDS011;10925;49.102;-0.370;2023-05-27T08:41:16;24.13;;;7.50;;
21527;SDS011;10925;49.102;-0.370;2023-05-27T08:43:42;19.58;;;6.45;;
21527;SDS011;10925;49.102;-0.370;2023-05-27T08:46:10;26.80;;;8.20;;
21527;SDS011;10925;49.102;-0.370;2023-05-27T08:48:38;24.23;;;7.10;;
21527;SDS011;10925;49.102;-0.370;2023-05-27T08:51:05;20.83;;;6.78;;
21527;SDS011;10925;49.102;-0.370;2023-05-27T08:53:32;20.65;;;7.72;;
21527;SDS011;10925;49.102;-0.370;2023-05-27T08:55:59;20.38;;;6.55;;
21527;SDS011;10925;49.102;-0.370;2023-05-27T08:58:27;31.33;;;7.25;;
21527;SDS011;10925;49.102;-0.370;2023-05-27T09:00:56;21.70;;;7.00;;
21527;SDS011;10925;49.102;-0.370;2023-05-27T09:03:21;17.98;;;6.25;;
21527;SDS011;10925;49.102;-0.370;2023-05-27T09:05:53;17.95;;;6.75;;
21527;SDS011;10925;49.102;-0.370;2023-05-27T09:08:20;25.42;;;7.00;;
21527;SDS011;10925;49.102;-0.370;2023-05-27T09:10:47;21.05;;;6.43;;
21527;SDS011;10925;49.102;-0.370;2023-05-27T09:13:24;24.48;;;7.38;;
21527;SDS011;10925;49.102;-0.370;2023-05-27T09:15:50;22.25;;;6.82;;
21527;SDS011;10925;49.102;-0.370;2023-05-27T09:18:31;22.40;;;6.32;;
21527;SDS011;10925;49.102;-0.370;2023-05-27T09:20:56;19.90;;;7.32;;
21527;SDS011;10925;49.102;-0.370;2023-05-27T09:23:23;24.45;;;8.07;;
21527;SDS011;10925;49.102;-0.370;2023-05-27T09:25:50;27.02;;;8.40;;
21527;SDS011;10925;49.102;-0.370;2023-05-27T09:28:23;25.08;;;7.47;;
21527;SDS011;10925;49.102;-0.370;2023-05-27T09:30:51;20.30;;;8.20;;
21527;SDS011;10925;49.102;-0.370;2023-05-27T09:33:22;25.85;;;8.73;;
21527;SDS011;10925;49.102;-0.370;2023-05-27T09:35:49;24.55;;;7.03;;
21527;SDS011;10925;49.102;-0.370;2023-05-27T09:38:16;22.30;;;7.45;;
21527;SDS011;10925;49.102;-0.370;2023-05-27T09:40:43;28.90;;;9.25;;
21527;SDS011;10925;49.102;-0.370;2023-05-27T09:43:12;26.77;;;8.43;;
21527;SDS011;10925;49.102;-0.370;2023-05-27T09:45:39;29.90;;;9.27;;
21527;SDS011;10925;49.102;-0.370;2023-05-27T09:48:06;27.85;;;9.43;;
21527;SDS011;10925;49.102;-0.370;2023-05-27T09:50:34;26.30;;;9.52;;
21527;SDS011;10925;49.102;-0.370;2023-05-27T09:53:01;33.33;;;9.80;;
21527;SDS011;10925;49.102;-0.370;2023-05-27T09:55:37;27.10;;;9.70;;
21527;SDS011;10925;49.102;-0.370;2023-05-27T09:58:03;36.20;;;10.93;;
21527;SDS011;10925;49.102;-0.370;2023-05-27T10:00:28;28.45;;;9.05;;
21527;SDS011;10925;49.102;-0.370;2023-05-27T10:02:55;27.95;;;10.32;;
21527;SDS011;10925;49.102;-0.370;2023-05-27T10:05:28;28.00;;;9.82;;
21527;SDS011;10925;49.102;-0.370;2023-05-27T10:07:55;31.23;;;9.55;;
21527;SDS011;10925;49.102;-0.370;2023-05-27T10:10:25;33.22;;;9.15;;
21527;SDS011;10925;49.102;-0.370;2023-05-27T10:12:52;29.05;;;7.95;;
21527;SDS011;10925;49.102;-0.370;2023-05-27T10:15:24;25.60;;;9.23;;
21527;SDS011;10925;49.102;-0.370;2023-05-27T10:17:58;24.60;;;8.70;;
21527;SDS011;10925;49.102;-0.370;2023-05-27T10:20:30;24.15;;;8.25;;
21527;SDS011;10925;49.102;-0.370;2023-05-27T10:22:57;27.90;;;8.38;;
21527;SDS011;10925;49.102;-0.370;2023-05-27T10:25:36;27.48;;;9.27;;
21527;SDS011;10925;49.102;-0.370;2023-05-27T10:28:02;27.20;;;10.25;;
21527;SDS011;10925;49.102;-0.370;2023-05-27T10:30:29;32.70;;;9.45;;
21527;SDS011;10925;49.102;-0.370;2023-05-27T10:32:57;30.85;;;9.23;;
21527;SDS011;10925;49.102;-0.370;2023-05-27T10:35:26;30.38;;;9.10;;
21527;SDS011;10925;49.102;-0.370;2023-05-27T10:37:54;25.58;;;9.98;;
21527;SDS011;10925;49.102;-0.370;2023-05-27T10:40:24;27.20;;;9.30;;
21527;SDS011;10925;49.102;-0.370;2023-05-27T10:43:00;30.40;;;9.10;;
21527;SDS011;10925;49.102;-0.370;2023-05-27T10:45:33;31.45;;;10.48;;
21527;SDS011;10925;49.102;-0.370;2023-05-27T10:48:01;27.63;;;9.63;;
21527;SDS011;10925;49.102;-0.370;2023-05-27T10:50:31;27.23;;;10.77;;
21527;SDS011;10925;49.102;-0.370;2023-05-27T10:53:00;34.13;;;10.48;;
21527;SDS011;10925;49.102;-0.370;2023-05-27T10:55:26;29.90;;;8.93;;
21527;SDS011;10925;49.102;-0.370;2023-05-27T10:57:53;24.83;;;9.18;;
21527;SDS011;10925;49.102;-0.370;2023-05-27T11:00:20;26.25;;;9.68;;
21527;SDS011;10925;49.102;-0.370;2023-05-27T11:02:50;32.25;;;9.50;;
21527;SDS011;10925;49.102;-0.370;2023-05-27T11:05:19;28.80;;;9.98;;
21527;SDS011;10925;49.102;-0.370;2023-05-27T11:07:45;26.55;;;8.93;;
21527;SDS011;10925;49.102;-0.370;2023-05-27T11:10:12;27.58;;;10.00;;
21527;SDS011;10925;49.102;-0.370;2023-05-27T11:12:43;28.27;;;8.98;;
21527;SDS011;10925;49.102;-0.370;2023-05-27T11:15:09;25.65;;;9.65;;
21527;SDS011;10925;49.102;-0.370;2023-05-27T11:17:36;33.80;;;8.98;;
21527;SDS011;10925;49.102;-0.370;2023-05-27T11:20:03;25.80;;;9.40;;
21527;SDS011;10925;49.102;-0.370;2023-05-27T11:22:34;28.90;;;9.35;;
21527;SDS011;10925;49.102;-0.370;2023-05-27T11:25:02;27.75;;;8.98;;
21527;SDS011;10925;49.102;-0.370;2023-05-27T11:27:36;33.70;;;9.30;;
21527;SDS011;10925;49.102;-0.370;2023-05-27T11:30:07;32.45;;;8.75;;
21527;SDS011;10925;49.102;-0.370;2023-05-27T11:32:36;31.15;;;9.32;;
21527;SDS011;10925;49.102;-0.370;2023-05-27T11:35:04;32.78;;;9.60;;
21527;SDS011;10925;49.102;-0.370;2023-05-27T11:37:31;31.55;;;9.80;;
21527;SDS011;10925;49.102;-0.370;2023-05-27T11:39:57;27.30;;;9.93;;
21527;SDS011;10925;49.102;-0.370;2023-05-27T11:42:24;29.73;;;9.48;;
21527;SDS011;10925;49.102;-0.370;2023-05-27T11:44:54;25.05;;;9.38;;
21527;SDS011;10925;49.102;-0.370;2023-05-27T11:47:21;29.50;;;9.75;;
21527;SDS011;10925;49.102;-0.370;2023-05-27T11:49:49;32.42;;;8.15;;
21527;SDS011;10925;49.102;-0.370;2023-05-27T11:52:16;26.88;;;9.00;;
21527;SDS011;10925;49.102;-0.370;2023-05-27T11:54:43;24.17;;;9.23;;
21527;SDS011;10925;49.102;-0.370;2023-05-27T11:57:22;31.88;;;9.60;;
21527;SDS011;10925;49.102;-0.370;2023-05-27T11:59:49;29.85;;;9.10;;
21527;SDS011;10925;49.102;-0.370;2023-05-27T12:02:14;26.40;;;7.97;;
21527;SDS011;10925;49.102;-0.370;2023-05-27T12:04:41;26.38;;;8.95;;
21527;SDS011;10925;49.102;-0.370;2023-05-27T12:07:09;31.05;;;8.43;;
21527;SDS011;10925;49.102;-0.370;2023-05-27T12:09:45;26.23;;;8.20;;
21527;SDS011;10925;49.102;-0.370;2023-05-27T12:12:12;27.40;;;9.07;;
21527;SDS011;10925;49.102;-0.370;2023-05-27T12:14:37;28.98;;;8.95;;
21527;SDS011;10925;49.102;-0.370;2023-05-27T12:17:03;27.67;;;9.07;;
21527;SDS011;10925;49.102;-0.370;2023-05-27T12:19:28;31.52;;;10.48;;
21527;SDS011;10925;49.102;-0.370;2023-05-27T12:22:10;26.60;;;8.10;;
21527;SDS011;10925;49.102;-0.370;2023-05-27T12:24:37;25.77;;;8.57;;
21527;SDS011;10925;49.102;-0.370;2023-05-27T12:27:04;26.85;;;8.82;;
21527;SDS011;10925;49.102;-0.370;2023-05-27T12:29:31;22.80;;;8.23;;
21527;SDS011;10925;49.102;-0.370;2023-05-27T12:32:00;22.85;;;7.72;;
21527;SDS011;10925;49.102;-0.370;2023-05-27T12:34:28;34.28;;;10.10;;
21527;SDS011;10925;49.102;-0.370;2023-05-27T12:36:54;29.50;;;10.23;;
21527;SDS011;10925;49.102;-0.370;2023-05-27T12:39:21;26.48;;;9.25;;
21527;SDS011;10925;49.102;-0.370;2023-05-27T12:41:49;27.67;;;8.07;;
21527;SDS011;10925;49.102;-0.370;2023-05-27T12:44:16;28.42;;;8.18;;
21527;SDS011;10925;49.102;-0.370;2023-05-27T12:46:45;27.13;;;8.85;;
21527;SDS011;10925;49.102;-0.370;2023-05-27T12:49:10;26.15;;;7.78;;
21527;SDS011;10925;49.102;-0.370;2023-05-27T12:51:37;31.08;;;9.43;;
21527;SDS011;10925;49.102;-0.370;2023-05-27T12:54:04;29.08;;;9.45;;
21527;SDS011;10925;49.102;-0.370;2023-05-27T12:56:30;24.00;;;7.97;;
21527;SDS011;10925;49.102;-0.370;2023-05-27T12:58:57;31.55;;;7.25;;
21527;SDS011;10925;49.102;-0.370;2023-05-27T13:01:25;31.10;;;9.48;;
21527;SDS011;10925;49.102;-0.370;2023-05-27T13:03:52;34.53;;;9.25;;
21527;SDS011;10925;49.102;-0.370;2023-05-27T13:06:19;26.13;;;8.57;;
21527;SDS011;10925;49.102;-0.370;2023-05-27T13:08:46;27.20;;;9.65;;
21527;SDS011;10925;49.102;-0.370;2023-05-27T13:11:13;34.03;;;9.57;;
21527;SDS011;10925;49.102;-0.370;2023-05-27T13:13:39;34.15;;;8.40;;
21527;SDS011;10925;49.102;-0.370;2023-05-27T13:16:06;28.88;;;8.98;;
21527;SDS011;10925;49.102;-0.370;2023-05-27T13:18:32;30.23;;;8.80;;
21527;SDS011;10925;49.102;-0.370;2023-05-27T13:20:57;32.95;;;8.32;;
21527;SDS011;10925;49.102;-0.370;2023-05-27T13:23:24;26.42;;;8.15;;
21527;SDS011;10925;49.102;-0.370;2023-05-27T13:25:58;26.55;;;8.57;;
21527;SDS011;10925;49.102;-0.370;2023-05-27T13:28:26;25.70;;;7.03;;
21527;SDS011;10925;49.102;-0.370;2023-05-27T13:30:53;22.83;;;6.65;;
21527;SDS011;10925;49.102;-0.370;2023-05-27T13:33:19;34.08;;;8.63;;
21527;SDS011;10925;49.102;-0.370;2023-05-27T13:35:46;23.58;;;8.02;;
21527;SDS011;10925;49.102;-0.370;2023-05-27T13:38:14;28.67;;;9.55;;
21527;SDS011;10925;49.102;-0.370;2023-05-27T13:40:43;27.65;;;7.28;;
21527;SDS011;10925;49.102;-0.370;2023-05-27T13:43:08;31.40;;;8.65;;
21527;SDS011;10925;49.102;-0.370;2023-05-27T13:45:35;23.77;;;7.93;;
21527;SDS011;10925;49.102;-0.370;2023-05-27T13:48:02;31.27;;;9.57;;
21527;SDS011;10925;49.102;-0.370;2023-05-27T13:50:29;36.22;;;9.43;;
21527;SDS011;10925;49.102;-0.370;2023-05-27T13:52:57;28.42;;;8.35;;
21527;SDS011;10925;49.102;-0.370;2023-05-27T13:55:24;30.70;;;8.88;;
21527;SDS011;10925;49.102;-0.370;2023-05-27T13:57:51;29.35;;;9.75;;
21527;SDS011;10925;49.102;-0.370;2023-05-27T14:00:18;27.33;;;7.95;;
21527;SDS011;10925;49.102;-0.370;2023-05-27T14:02:44;31.25;;;9.10;;
21527;SDS011;10925;49.102;-0.370;2023-05-27T14:05:11;30.63;;;9.80;;
21527;SDS011;10925;49.102;-0.370;2023-05-27T14:07:39;29.95;;;8.93;;
21527;SDS011;10925;49.102;-0.370;2023-05-27T14:10:07;30.13;;;7.90;;
21527;SDS011;10925;49.102;-0.370;2023-05-27T14:12:32;31.80;;;8.57;;
21527;SDS011;10925;49.102;-0.370;2023-05-27T14:14:58;25.02;;;8.38;;
21527;SDS011;10925;49.102;-0.370;2023-05-27T14:17:23;33.28;;;9.50;;
21527;SDS011;10925;49.102;-0.370;2023-05-27T14:19:49;19.33;;;7.97;;
21527;SDS011;10925;49.102;-0.370;2023-05-27T14:22:15;41.90;;;9.55;;
21527;SDS011;10925;49.102;-0.370;2023-05-27T14:24:40;33.22;;;9.80;;
21527;SDS011;10925;49.102;-0.370;2023-05-27T14:27:07;36.22;;;10.00;;
21527;SDS011;10925;49.102;-0.370;2023-05-27T14:29:34;24.67;;;8.70;;
21527;SDS011;10925;49.102;-0.370;2023-05-27T14:32:01;27.92;;;9.02;;
21527;SDS011;10925;49.102;-0.370;2023-05-27T14:34:28;28.58;;;9.10;;